createdAt,value
2022-11-13T00:00:36.599Z,47.25
2022-11-13T00:03:23.580Z,42.42
2022-11-13T00:06:11.246Z,39.50
2022-11-13T00:08:57.493Z,39.00
2022-11-13T00:11:44.517Z,54.03
2022-11-13T00:14:33.147Z,62.45
2022-11-13T00:17:19.734Z,49.00
2022-11-13T00:20:06.915Z,62.15
2022-11-13T00:22:53.275Z,64.97
2022-11-13T00:25:39.457Z,70.35
2022-11-13T00:28:27.740Z,68.68
2022-11-13T00:31:16.678Z,60.75
2022-11-13T00:34:33.217Z,66.00
2022-11-13T00:37:19.687Z,60.55
2022-11-13T00:40:06.186Z,57.85
2022-11-13T00:42:52.373Z,55.13
2022-11-13T00:45:40.507Z,56.25
2022-11-13T00:48:27.651Z,49.25
2022-11-13T00:51:13.967Z,47.58
2022-11-13T00:54:05.187Z,42.95
2022-11-13T00:56:54.152Z,45.42
2022-11-13T00:59:40.554Z,45.47
2022-11-13T01:02:26.963Z,44.60
2022-11-13T01:05:15.847Z,41.38
2022-11-13T01:08:01.942Z,34.33
2022-11-13T01:10:53.984Z,36.17
2022-11-13T01:13:41.703Z,37.97
2022-11-13T01:16:31.211Z,29.45
2022-11-13T01:19:20.398Z,33.33
2022-11-13T01:22:10.556Z,32.47
2022-11-13T01:25:01.976Z,32.00
2022-11-13T01:27:53.114Z,35.25
2022-11-13T01:30:44.056Z,38.40
2022-11-13T01:33:32.952Z,32.33
2022-11-13T01:36:27.627Z,36.55
2022-11-13T01:39:17.122Z,32.15
2022-11-13T01:42:05.412Z,31.98
2022-11-13T01:44:55.243Z,30.50
2022-11-13T01:47:41.649Z,32.42
2022-11-13T01:50:32.803Z,37.67
2022-11-13T01:53:22.883Z,32.78
2022-11-13T01:59:13.116Z,28.70
2022-11-13T02:02:02.914Z,29.30
2022-11-13T02:04:50.373Z,33.33
2022-11-13T02:07:38.964Z,30.70
2022-11-13T02:10:25.784Z,32.13
2022-11-13T02:13:18.315Z,31.13
2022-11-13T02:16:05.143Z,31.10
2022-11-13T02:18:52.835Z,29.42
2022-11-13T02:21:55.041Z,34.05
2022-11-13T02:24:48.734Z,36.15
2022-11-13T02:27:46.768Z,37.08
2022-11-13T02:30:36.227Z,34.92
2022-11-13T02:33:32.439Z,34.42
2022-11-13T02:36:24.336Z,40.25
2022-11-13T02:39:14.164Z,36.60
2022-11-13T02:42:05.464Z,39.88
2022-11-13T02:44:52.132Z,37.78
2022-11-13T02:47:39.215Z,35.08
2022-11-13T02:50:25.715Z,38.55
2022-11-13T02:53:11.970Z,35.67
2022-11-13T02:56:01.153Z,34.65
2022-11-13T02:58:51.404Z,44.05
2022-11-13T03:01:38.200Z,35.00
2022-11-13T03:04:38.407Z,35.90
2022-11-13T03:07:37.966Z,34.80
2022-11-13T03:10:24.181Z,39.50
2022-11-13T03:13:14.298Z,37.97
2022-11-13T03:16:12.353Z,41.78
2022-11-13T03:19:01.148Z,32.35
2022-11-13T03:21:48.028Z,36.92
2022-11-13T03:24:34.257Z,35.47
2022-11-13T03:27:22.929Z,34.50
2022-11-13T03:30:10.476Z,37.78
2022-11-13T03:32:57.787Z,38.88
2022-11-13T03:35:48.255Z,35.55
2022-11-13T03:38:35.487Z,37.60
2022-11-13T03:41:26.462Z,35.22
2022-11-13T03:44:13.296Z,32.63
2022-11-13T03:47:02.490Z,36.13
2022-11-13T03:49:49.382Z,44.60
2022-11-13T03:52:36.034Z,57.17
2022-11-13T03:55:24.768Z,40.55
2022-11-13T03:58:14.296Z,42.35
2022-11-13T04:01:03.660Z,42.60
2022-11-13T04:03:50.807Z,43.78
2022-11-13T04:06:40.756Z,45.22
2022-11-13T04:12:15.495Z,46.40
2022-11-13T04:15:02.154Z,41.90
2022-11-13T04:17:53.078Z,41.90
2022-11-13T04:20:44.023Z,44.63
2022-11-13T04:23:32.867Z,42.25
2022-11-13T04:26:19.547Z,47.15
2022-11-13T04:29:06.010Z,42.97
2022-11-13T04:31:53.755Z,47.28
2022-11-13T04:34:39.757Z,47.35
2022-11-13T04:37:28.538Z,45.08
2022-11-13T04:40:20.522Z,45.95
2022-11-13T04:43:08.519Z,39.28
2022-11-13T04:45:56.192Z,44.67
2022-11-13T04:48:45.239Z,43.55
2022-11-13T04:51:34.485Z,48.38
2022-11-13T04:54:25.791Z,44.05
2022-11-13T04:57:14.873Z,42.45
2022-11-13T05:00:02.826Z,45.78
2022-11-13T05:05:40.121Z,38.83
2022-11-13T05:08:26.723Z,46.10
2022-11-13T05:11:17.720Z,48.83
2022-11-13T05:14:05.114Z,45.88
2022-11-13T05:16:53.929Z,44.00
2022-11-13T05:19:40.311Z,43.67
2022-11-13T05:22:32.215Z,47.08
2022-11-13T05:25:22.023Z,57.63
2022-11-13T05:28:11.240Z,53.47
2022-11-13T05:31:15.634Z,54.28
2022-11-13T05:34:07.407Z,55.40
2022-11-13T05:36:56.669Z,53.38
2022-11-13T05:39:43.242Z,55.70
2022-11-13T05:42:34.178Z,52.88
2022-11-13T05:45:22.903Z,46.13
2022-11-13T05:48:11.083Z,45.38
2022-11-13T05:51:11.427Z,48.88
2022-11-13T05:54:00.436Z,43.63
2022-11-13T05:56:46.402Z,47.53
2022-11-13T05:59:33.059Z,59.80
2022-11-13T06:02:20.502Z,42.03
2022-11-13T06:05:09.518Z,40.38
2022-11-13T06:07:58.490Z,47.05
2022-11-13T06:10:49.940Z,48.13
2022-11-13T06:13:36.253Z,45.83
2022-11-13T06:16:36.520Z,48.80
2022-11-13T06:19:24.976Z,56.08
2022-11-13T06:22:11.172Z,51.75
2022-11-13T06:24:57.591Z,57.58
2022-11-13T06:27:44.410Z,56.90
2022-11-13T06:30:35.729Z,62.92
2022-11-13T06:33:26.543Z,57.25
2022-11-13T06:36:22.211Z,62.33
2022-11-13T06:39:13.457Z,54.90
2022-11-13T06:42:02.294Z,57.03
2022-11-13T06:44:49.423Z,56.67
2022-11-13T06:47:37.766Z,56.45
2022-11-13T06:50:26.149Z,55.13
2022-11-13T06:53:15.282Z,50.42
2022-11-13T06:56:01.934Z,57.85
2022-11-13T06:58:48.875Z,54.38
2022-11-13T07:01:37.376Z,59.33
2022-11-13T07:04:28.373Z,68.50
2022-11-13T07:07:17.634Z,57.10
2022-11-13T07:10:04.319Z,72.72
2022-11-13T07:12:54.666Z,69.40
2022-11-13T07:15:44.196Z,66.20
2022-11-13T07:18:31.986Z,71.57
2022-11-13T07:21:22.656Z,66.88
2022-11-13T07:24:16.792Z,75.82
2022-11-13T07:27:04.342Z,65.65
2022-11-13T07:29:50.616Z,68.50
2022-11-13T07:32:37.280Z,74.45
2022-11-13T07:35:24.122Z,86.22
2022-11-13T07:38:15.656Z,89.53
2022-11-13T07:41:02.641Z,86.13
2022-11-13T07:43:51.033Z,81.80
2022-11-13T07:46:38.607Z,78.50
2022-11-13T07:49:27.727Z,93.43
2022-11-13T07:52:13.998Z,86.78
2022-11-13T07:55:03.706Z,72.45
2022-11-13T07:57:50.883Z,70.88
2022-11-13T08:00:39.468Z,67.40
2022-11-13T08:03:26.605Z,64.68
2022-11-13T08:06:12.509Z,68.78
2022-11-13T08:08:58.619Z,57.40
2022-11-13T08:11:45.338Z,61.92
2022-11-13T08:14:32.440Z,57.55
2022-11-13T08:17:19.632Z,67.82
2022-11-13T08:20:07.933Z,57.15
2022-11-13T08:22:59.875Z,74.95
2022-11-13T08:25:46.262Z,48.03
2022-11-13T08:28:33.126Z,129.73
2022-11-13T08:31:24.861Z,151.50
2022-11-13T08:34:14.111Z,148.20
2022-11-13T08:37:01.006Z,77.82
2022-11-13T08:39:47.121Z,66.60
2022-11-13T08:42:36.343Z,76.25
2022-11-13T08:45:22.901Z,72.13
2022-11-13T08:48:14.367Z,69.85
2022-11-13T08:51:00.530Z,48.53
2022-11-13T08:53:47.005Z,39.90
2022-11-13T08:56:33.147Z,51.60
2022-11-13T08:59:20.955Z,65.07
2022-11-13T09:02:08.054Z,72.53
2022-11-13T09:04:54.980Z,46.80
2022-11-13T09:07:43.430Z,55.35
2022-11-13T09:10:29.819Z,50.90
2022-11-13T09:13:16.050Z,43.38
2022-11-13T09:16:03.293Z,50.22
2022-11-13T09:18:53.095Z,44.92
2022-11-13T09:21:41.736Z,61.20
2022-11-13T09:24:28.001Z,82.25
2022-11-13T09:27:14.732Z,57.10
2022-11-13T09:30:06.156Z,35.78
2022-11-13T09:32:59.570Z,31.25
2022-11-13T09:35:46.603Z,42.95
2022-11-13T09:38:33.119Z,64.30
2022-11-13T09:41:31.684Z,38.63
2022-11-13T09:44:48.891Z,53.10
2022-11-13T09:47:44.072Z,72.10
2022-11-13T09:50:32.823Z,34.50
2022-11-13T09:53:27.563Z,26.85
2022-11-13T09:56:39.924Z,29.80
2022-11-13T09:59:45.230Z,27.30
2022-11-13T10:02:56.499Z,27.60
2022-11-13T10:05:53.201Z,29.83
2022-11-13T10:09:28.754Z,33.53
2022-11-13T10:12:15.908Z,29.85
2022-11-13T10:15:04.406Z,28.10
2022-11-13T10:17:57.143Z,28.45
2022-11-13T10:20:43.691Z,32.38
2022-11-13T10:23:34.347Z,28.05
2022-11-13T10:26:25.607Z,25.92
2022-11-13T10:29:15.261Z,26.55
2022-11-13T10:32:18.992Z,27.15
2022-11-13T10:35:05.457Z,23.05
2022-11-13T10:38:09.395Z,26.33
2022-11-13T10:41:10.247Z,31.05
2022-11-13T10:44:05.562Z,27.00
2022-11-13T10:47:49.043Z,23.50
2022-11-13T10:50:31.641Z,28.50
2022-11-13T10:53:20.700Z,22.58
2022-11-13T10:56:31.481Z,24.30
2022-11-13T10:59:19.592Z,20.90
2022-11-13T11:02:23.823Z,26.80
2022-11-13T11:05:24.841Z,16.60
2022-11-13T11:08:14.623Z,22.48
2022-11-13T11:11:46.346Z,19.10
2022-11-13T11:14:44.037Z,18.42
2022-11-13T11:17:57.779Z,17.73
2022-11-13T11:20:53.066Z,17.85
2022-11-13T11:23:53.152Z,13.38
2022-11-13T11:27:05.070Z,17.02
2022-11-13T11:30:13.803Z,14.40
2022-11-13T11:33:22.063Z,17.23
2022-11-13T11:36:36.849Z,17.30
2022-11-13T11:39:33.301Z,19.27
2022-11-13T11:42:30.894Z,16.38
2022-11-13T11:45:31.053Z,14.75
2022-11-13T11:48:27.181Z,14.60
2022-11-13T11:51:33.617Z,18.38
2022-11-13T11:54:41.926Z,17.40
2022-11-13T11:57:48.589Z,18.20
2022-11-13T12:00:41.020Z,17.33
2022-11-13T12:03:48.812Z,14.73
2022-11-13T12:07:13.038Z,14.38
2022-11-13T12:10:11.073Z,17.15
2022-11-13T12:13:27.469Z,16.08
2022-11-13T12:16:19.804Z,14.50
2022-11-13T12:19:36.901Z,13.98
2022-11-13T12:22:30.579Z,16.58
2022-11-13T12:25:22.533Z,21.15
2022-11-13T12:28:20.410Z,21.00
2022-11-13T12:31:24.244Z,17.80
2022-11-13T12:34:34.062Z,20.83
2022-11-13T12:37:45.387Z,20.73
2022-11-13T12:40:42.899Z,27.55
2022-11-13T12:43:30.298Z,19.77
2022-11-13T12:46:19.494Z,20.15
2022-11-13T12:49:36.160Z,22.67
2022-11-13T12:52:28.515Z,20.20
2022-11-13T12:55:29.645Z,21.73
2022-11-13T13:01:18.764Z,22.25
2022-11-13T13:04:28.683Z,24.27
2022-11-13T13:07:25.578Z,22.30
2022-11-13T13:10:54.551Z,22.88
2022-11-13T13:13:40.468Z,22.35
2022-11-13T13:16:30.326Z,25.95
2022-11-13T13:19:28.791Z,27.50
2022-11-13T13:22:31.192Z,21.50
2022-11-13T13:25:37.610Z,24.38
2022-11-13T13:28:23.903Z,22.55
2022-11-13T13:31:13.225Z,21.15
2022-11-13T13:34:35.487Z,23.20
2022-11-13T13:37:43.269Z,22.00
2022-11-13T13:40:49.909Z,26.00
2022-11-13T13:43:54.777Z,26.40
2022-11-13T13:46:42.627Z,23.15
2022-11-13T13:49:29.556Z,23.85
2022-11-13T13:52:21.227Z,27.92
2022-11-13T13:55:16.294Z,24.33
2022-11-13T13:58:09.128Z,22.33
2022-11-13T14:01:17.781Z,28.35
2022-11-13T14:04:22.487Z,26.95
2022-11-13T14:07:45.756Z,26.95
2022-11-13T14:10:39.332Z,24.83
2022-11-13T14:13:29.502Z,25.88
2022-11-13T14:16:19.019Z,24.20
2022-11-13T14:19:06.122Z,25.73
2022-11-13T14:22:03.929Z,25.30
2022-11-13T14:25:19.803Z,23.60
2022-11-13T14:28:17.015Z,25.70
2022-11-13T14:31:14.738Z,25.20
2022-11-13T14:34:08.765Z,28.83
2022-11-13T14:37:04.887Z,23.70
2022-11-13T14:39:52.351Z,27.30
2022-11-13T14:42:43.819Z,23.25
2022-11-13T14:45:36.167Z,24.00
2022-11-13T14:48:32.053Z,21.92
2022-11-13T14:51:54.389Z,29.85
2022-11-13T14:57:50.605Z,27.48
2022-11-13T15:00:41.940Z,24.60
2022-11-13T15:03:29.576Z,26.83
2022-11-13T15:06:19.883Z,29.45
2022-11-13T15:09:13.565Z,28.08
2022-11-13T15:12:00.824Z,29.40
2022-11-13T15:14:50.050Z,26.30
2022-11-13T15:17:43.581Z,26.13
2022-11-13T15:20:32.684Z,32.05
2022-11-13T15:23:23.552Z,29.17
2022-11-13T15:26:12.276Z,28.80
2022-11-13T15:29:01.082Z,27.45
2022-11-13T15:31:53.198Z,22.48
2022-11-13T15:34:42.397Z,24.90
2022-11-13T15:37:29.702Z,28.38
2022-11-13T15:40:17.995Z,26.65
2022-11-13T15:43:05.643Z,25.92
2022-11-13T15:45:54.452Z,29.02
2022-11-13T15:48:41.435Z,31.65
2022-11-13T15:51:41.955Z,27.73
2022-11-13T15:54:35.118Z,28.23
2022-11-13T15:57:31.443Z,28.10
2022-11-13T16:00:21.600Z,23.88
2022-11-13T16:03:11.960Z,27.80
2022-11-13T16:06:03.676Z,28.90
2022-11-13T16:08:55.052Z,26.35
2022-11-13T16:11:41.996Z,26.80
2022-11-13T16:14:28.877Z,33.20
2022-11-13T16:17:21.321Z,30.70
2022-11-13T16:20:17.045Z,31.15
2022-11-13T16:23:03.419Z,31.88
2022-11-13T16:25:50.292Z,33.55
2022-11-13T16:29:07.180Z,29.58
2022-11-13T16:31:51.246Z,38.33
2022-11-13T16:34:41.212Z,32.90
2022-11-13T16:37:27.378Z,34.05
2022-11-13T16:40:26.030Z,33.53
2022-11-13T16:43:16.755Z,42.03
2022-11-13T16:46:20.971Z,33.90
2022-11-13T16:49:19.548Z,40.58
2022-11-13T16:52:10.834Z,42.83
2022-11-13T16:55:06.354Z,39.67
2022-11-13T16:57:55.374Z,40.40
2022-11-13T17:00:42.402Z,41.45
2022-11-13T17:03:29.173Z,44.70
2022-11-13T17:06:27.863Z,37.67
2022-11-13T17:09:14.447Z,43.67
2022-11-13T17:12:02.298Z,40.53
2022-11-13T17:14:51.976Z,43.92
2022-11-13T17:17:38.090Z,50.15
2022-11-13T17:20:26.812Z,41.42
2022-11-13T17:23:16.708Z,46.90
2022-11-13T17:28:50.296Z,41.40
2022-11-13T17:31:36.995Z,42.05
2022-11-13T17:34:25.843Z,39.25
2022-11-13T17:37:12.416Z,51.03
2022-11-13T17:39:58.519Z,45.55
2022-11-13T17:42:48.304Z,43.83
2022-11-13T17:45:38.772Z,45.00
2022-11-13T17:51:13.193Z,50.28
2022-11-13T17:54:02.076Z,51.97
2022-11-13T17:56:48.187Z,50.42
2022-11-13T17:59:34.604Z,42.35
2022-11-13T18:02:23.256Z,50.05
2022-11-13T18:05:12.200Z,47.85
2022-11-13T18:08:03.744Z,44.88
2022-11-13T18:10:52.967Z,37.55
2022-11-13T18:13:44.763Z,41.22
2022-11-13T18:16:35.135Z,40.97
2022-11-13T18:19:22.221Z,38.72
2022-11-13T18:22:09.463Z,40.50
2022-11-13T18:24:59.232Z,36.35
2022-11-13T18:27:45.926Z,40.13
2022-11-13T18:30:37.766Z,38.45
2022-11-13T18:33:24.754Z,42.42
2022-11-13T18:36:11.676Z,38.53
2022-11-13T18:38:58.978Z,40.42
2022-11-13T18:41:45.931Z,41.75
2022-11-13T18:44:35.639Z,48.45
2022-11-13T18:50:08.670Z,38.45
2022-11-13T18:52:58.400Z,44.58
2022-11-13T18:55:44.538Z,42.97
2022-11-13T18:58:31.672Z,45.33
2022-11-13T19:01:22.763Z,43.72
2022-11-13T19:04:25.506Z,48.90
2022-11-13T19:07:12.641Z,43.78
2022-11-13T19:10:06.493Z,49.45
2022-11-13T19:12:57.812Z,45.22
2022-11-13T19:15:44.705Z,48.20
2022-11-13T19:18:33.638Z,52.40
2022-11-13T19:21:24.414Z,52.22
2022-11-13T19:24:11.978Z,47.67
2022-11-13T19:26:58.195Z,59.08
2022-11-13T19:29:44.563Z,63.10
2022-11-13T19:32:33.199Z,53.80
2022-11-13T19:35:19.858Z,50.67
2022-11-13T19:38:06.751Z,54.67
2022-11-13T19:40:53.293Z,51.72
2022-11-13T19:43:45.024Z,52.35
2022-11-13T19:46:34.158Z,58.15
2022-11-13T19:49:21.208Z,52.90
2022-11-13T19:52:09.640Z,58.58
2022-11-13T19:54:58.346Z,52.55
2022-11-13T19:57:47.513Z,50.35
2022-11-13T20:00:37.215Z,54.70
2022-11-13T20:03:26.093Z,58.50
2022-11-13T20:06:13.818Z,48.72
2022-11-13T20:09:01.294Z,51.65
2022-11-13T20:11:47.576Z,53.33
2022-11-13T20:14:38.039Z,52.03
2022-11-13T20:17:25.218Z,53.70
2022-11-13T20:20:12.281Z,50.28
2022-11-13T20:22:58.883Z,51.83
2022-11-13T20:25:56.070Z,50.60
2022-11-13T20:28:43.758Z,56.35
2022-11-13T20:31:32.685Z,54.67
2022-11-13T20:34:22.257Z,51.25
2022-11-13T20:37:13.309Z,45.35
2022-11-13T20:40:00.059Z,47.03
2022-11-13T20:42:46.685Z,51.55
2022-11-13T20:45:32.988Z,51.22
2022-11-13T20:48:19.622Z,51.70
2022-11-13T20:51:22.409Z,60.20
2022-11-13T20:54:09.355Z,51.40
2022-11-13T20:56:57.771Z,60.47
2022-11-13T20:59:47.089Z,56.45
2022-11-13T21:02:34.038Z,54.53
2022-11-13T21:05:20.296Z,53.70
2022-11-13T21:08:09.102Z,58.83
2022-11-13T21:10:55.244Z,52.20
2022-11-13T21:13:49.456Z,53.65
2022-11-13T21:16:38.349Z,48.97
2022-11-13T21:19:26.780Z,57.42
2022-11-13T21:22:13.016Z,55.55
2022-11-13T21:25:00.368Z,53.40
2022-11-13T21:27:47.198Z,54.70
2022-11-13T21:30:36.158Z,52.78
2022-11-13T21:33:27.394Z,57.17
2022-11-13T21:36:22.153Z,53.05
2022-11-13T21:39:10.975Z,57.70
2022-11-13T21:42:02.813Z,44.33
2022-11-13T21:44:51.524Z,54.53
2022-11-13T21:47:41.294Z,51.65
2022-11-13T21:50:27.434Z,52.33
2022-11-13T21:53:16.208Z,54.97
2022-11-13T21:56:05.077Z,57.42
2022-11-13T21:58:51.665Z,57.55
2022-11-13T22:01:39.600Z,56.78
2022-11-13T22:04:33.236Z,54.55
2022-11-13T22:07:19.812Z,56.10
2022-11-13T22:10:09.755Z,56.55
2022-11-13T22:13:03.019Z,59.47
2022-11-13T22:15:52.291Z,66.15
2022-11-13T22:18:38.895Z,64.10
2022-11-13T22:21:29.535Z,57.30
2022-11-13T22:24:20.042Z,69.72
2022-11-13T22:27:06.050Z,71.40
2022-11-13T22:29:52.264Z,60.20
2022-11-13T22:32:39.459Z,70.78
2022-11-13T22:35:25.766Z,81.63
2022-11-13T22:38:14.915Z,70.25
2022-11-13T22:41:06.085Z,60.72
2022-11-13T22:43:57.456Z,68.40
2022-11-13T22:46:46.556Z,65.22
2022-11-13T22:49:36.189Z,62.33
2022-11-13T22:52:24.829Z,68.00
2022-11-13T22:55:13.936Z,66.35
2022-11-13T22:58:00.539Z,62.72
2022-11-13T23:00:47.712Z,66.95
2022-11-13T23:03:40.291Z,68.15
2022-11-13T23:06:30.305Z,62.20
2022-11-13T23:09:17.084Z,69.55
2022-11-13T23:12:05.954Z,62.50
2022-11-13T23:14:56.827Z,69.57
2022-11-13T23:17:47.655Z,75.25
2022-11-13T23:20:40.124Z,69.68
2022-11-13T23:23:26.408Z,61.50
2022-11-13T23:26:13.926Z,71.03
2022-11-13T23:29:00.518Z,72.68
2022-11-13T23:31:47.004Z,67.80
2022-11-13T23:34:57.942Z,76.78
2022-11-13T23:37:42.410Z,66.50
2022-11-13T23:40:29.064Z,77.22
2022-11-13T23:43:15.354Z,82.05
2022-11-13T23:46:02.133Z,72.22
2022-11-13T23:48:48.347Z,76.03
2022-11-13T23:51:34.593Z,88.03
2022-11-13T23:54:21.084Z,80.53
2022-11-13T23:57:07.438Z,81.68
2022-11-13T23:59:56.496Z,82.03
